Greenwood, Missouri
Current Conditions -  °F | °C
As of 1:15 PM on Thursday 23 Oct 2014 (Local Time) from KLXT Reporting Station
Overcast Overcast  
Wind Chill: 64°   Ceiling: 1500
Heat Index: 64°   Visibility: 10mi
Dew Point: 58°   Wind: 10mph
Humidity: 80%   Direction: 220°SW
Pressure: 30.1"   Gusts: NA
Location:  38.85°N, 94.34°W
Report Text: KLXT 231815Z AUTO 22009KT 10SM OVC015 18/14 A3010 RMK AO2 T01780144
Loading
Personal Weather Stations






























Interactive Weather Map
Tropical Storm Tracking
New forecast layout! Learn more

10-Day Weather Forecast

Advertisements
Track Severe Weather on mobile